Providence, Rhode Island
Current Conditions -  °F | °C
As of 5:51 AM on Friday 28 Nov 2014 (Local Time) from KPVD Reporting Station
Overcast Overcast  
Wind Chill: -6°   Ceiling: 2500
Heat Index: -1°   Visibility: 10mi
Dew Point: -4°   Wind: 14mph
Humidity: 79%   Direction: 330°NNW
Pressure: 30.01"   Gusts: NA
Location:  41.82°N, 71.41°W
Report Text: KPVD 281051Z 33012KT 10SM OVC025 M01/M04 A3001 RMK AO2 SLP162 T10061039
Loading
Personal Weather Stations






























Interactive Weather Map New forecast layout! Learn more

10-Day Weather Forecast

Advertisements
Track Severe Weather on mobile